sensor_id;sensor_type;location;lat;lon;timestamp;P1;durP1;ratioP1;P2;durP2;ratioP2
13218;SDS011;6674;49.152;11.918;2022-07-23T00:02:16;6.80;;;6.30;;
13218;SDS011;6674;49.152;11.918;2022-07-23T00:04:44;6.80;;;6.30;;
13218;SDS011;6674;49.152;11.918;2022-07-23T00:07:11;6.63;;;6.20;;
13218;SDS011;6674;49.152;11.918;2022-07-23T00:09:37;7.07;;;6.57;;
13218;SDS011;6674;49.152;11.918;2022-07-23T00:12:04;6.73;;;6.23;;
13218;SDS011;6674;49.152;11.918;2022-07-23T00:14:31;6.37;;;5.87;;
13218;SDS011;6674;49.152;11.918;2022-07-23T00:16:58;6.10;;;5.70;;
13218;SDS011;6674;49.152;11.918;2022-07-23T00:19:25;6.30;;;5.80;;
13218;SDS011;6674;49.152;11.918;2022-07-23T00:21:52;7.13;;;6.53;;
13218;SDS011;6674;49.152;11.918;2022-07-23T00:24:19;7.20;;;6.70;;
13218;SDS011;6674;49.152;11.918;2022-07-23T00:26:46;7.50;;;6.90;;
13218;SDS011;6674;49.152;11.918;2022-07-23T00:29:13;6.97;;;6.47;;
13218;SDS011;6674;49.152;11.918;2022-07-23T00:31:39;6.83;;;6.23;;
13218;SDS011;6674;49.152;11.918;2022-07-23T00:34:06;7.13;;;6.63;;
13218;SDS011;6674;49.152;11.918;2022-07-23T00:36:32;7.93;;;7.33;;
13218;SDS011;6674;49.152;11.918;2022-07-23T00:39:00;8.67;;;7.97;;
13218;SDS011;6674;49.152;11.918;2022-07-23T00:41:27;7.40;;;6.70;;
13218;SDS011;6674;49.152;11.918;2022-07-23T00:43:54;7.37;;;6.77;;
13218;SDS011;6674;49.152;11.918;2022-07-23T00:46:20;7.80;;;7.20;;
13218;SDS011;6674;49.152;11.918;2022-07-23T00:48:47;8.30;;;7.60;;
13218;SDS011;6674;49.152;11.918;2022-07-23T00:51:14;9.10;;;8.30;;
13218;SDS011;6674;49.152;11.918;2022-07-23T00:53:41;8.20;;;7.53;;
13218;SDS011;6674;49.152;11.918;2022-07-23T00:56:09;7.40;;;6.87;;
13218;SDS011;6674;49.152;11.918;2022-07-23T00:58:36;7.10;;;6.60;;
13218;SDS011;6674;49.152;11.918;2022-07-23T01:01:05;7.47;;;6.87;;
13218;SDS011;6674;49.152;11.918;2022-07-23T01:03:33;7.00;;;6.40;;
13218;SDS011;6674;49.152;11.918;2022-07-23T01:05:59;6.97;;;6.47;;
13218;SDS011;6674;49.152;11.918;2022-07-23T01:08:26;8.47;;;7.67;;
13218;SDS011;6674;49.152;11.918;2022-07-23T01:10:53;7.20;;;6.70;;
13218;SDS011;6674;49.152;11.918;2022-07-23T01:13:21;9.33;;;6.73;;
13218;SDS011;6674;49.152;11.918;2022-07-23T01:15:47;7.00;;;6.40;;
13218;SDS011;6674;49.152;11.918;2022-07-23T01:18:14;6.63;;;6.13;;
13218;SDS011;6674;49.152;11.918;2022-07-23T01:20:40;6.73;;;6.23;;
13218;SDS011;6674;49.152;11.918;2022-07-23T01:23:08;6.67;;;6.17;;
13218;SDS011;6674;49.152;11.918;2022-07-23T01:25:35;6.97;;;6.43;;
13218;SDS011;6674;49.152;11.918;2022-07-23T01:28:02;7.23;;;6.73;;
13218;SDS011;6674;49.152;11.918;2022-07-23T01:30:29;6.70;;;6.17;;
13218;SDS011;6674;49.152;11.918;2022-07-23T01:32:55;6.10;;;5.63;;
13218;SDS011;6674;49.152;11.918;2022-07-23T01:35:22;6.57;;;6.07;;
13218;SDS011;6674;49.152;11.918;2022-07-23T01:37:49;6.33;;;5.83;;
13218;SDS011;6674;49.152;11.918;2022-07-23T01:40:17;6.07;;;5.67;;
13218;SDS011;6674;49.152;11.918;2022-07-23T01:42:44;6.23;;;5.77;;
13218;SDS011;6674;49.152;11.918;2022-07-23T01:45:11;6.67;;;6.20;;
13218;SDS011;6674;49.152;11.918;2022-07-23T01:47:37;6.70;;;6.20;;
13218;SDS011;6674;49.152;11.918;2022-07-23T01:50:04;6.20;;;5.70;;
13218;SDS011;6674;49.152;11.918;2022-07-23T01:52:31;7.17;;;6.67;;
13218;SDS011;6674;49.152;11.918;2022-07-23T01:54:58;7.50;;;6.80;;
13218;SDS011;6674;49.152;11.918;2022-07-23T01:57:26;7.57;;;6.97;;
13218;SDS011;6674;49.152;11.918;2022-07-23T01:59:53;9.13;;;8.30;;
13218;SDS011;6674;49.152;11.918;2022-07-23T02:02:19;8.63;;;7.93;;
13218;SDS011;6674;49.152;11.918;2022-07-23T02:04:46;8.87;;;8.03;;
13218;SDS011;6674;49.152;11.918;2022-07-23T02:07:12;8.20;;;7.47;;
13218;SDS011;6674;49.152;11.918;2022-07-23T02:09:39;7.30;;;6.80;;
13218;SDS011;6674;49.152;11.918;2022-07-23T02:12:06;8.07;;;7.33;;
13218;SDS011;6674;49.152;11.918;2022-07-23T02:14:34;7.77;;;7.13;;
13218;SDS011;6674;49.152;11.918;2022-07-23T02:17:01;8.77;;;8.07;;
13218;SDS011;6674;49.152;11.918;2022-07-23T02:19:27;8.17;;;7.57;;
13218;SDS011;6674;49.152;11.918;2022-07-23T02:21:54;8.03;;;7.30;;
13218;SDS011;6674;49.152;11.918;2022-07-23T02:24:20;8.03;;;7.33;;
13218;SDS011;6674;49.152;11.918;2022-07-23T02:26:47;7.00;;;6.40;;
13218;SDS011;6674;49.152;11.918;2022-07-23T02:29:14;8.10;;;7.50;;
13218;SDS011;6674;49.152;11.918;2022-07-23T02:31:42;9.17;;;8.40;;
13218;SDS011;6674;49.152;11.918;2022-07-23T02:34:09;9.07;;;8.37;;
13218;SDS011;6674;49.152;11.918;2022-07-23T02:36:36;8.77;;;7.90;;
13218;SDS011;6674;49.152;11.918;2022-07-23T02:39:03;9.70;;;9.00;;
13218;SDS011;6674;49.152;11.918;2022-07-23T02:41:30;9.60;;;8.60;;
13218;SDS011;6674;49.152;11.918;2022-07-23T02:43:56;9.40;;;8.53;;
13218;SDS011;6674;49.152;11.918;2022-07-23T02:46:23;8.53;;;7.83;;
13218;SDS011;6674;49.152;11.918;2022-07-23T02:48:51;8.47;;;7.77;;
13218;SDS011;6674;49.152;11.918;2022-07-23T02:51:17;7.63;;;7.10;;
13218;SDS011;6674;49.152;11.918;2022-07-23T02:53:44;7.70;;;7.00;;
13218;SDS011;6674;49.152;11.918;2022-07-23T02:56:11;7.00;;;6.37;;
13218;SDS011;6674;49.152;11.918;2022-07-23T02:58:37;7.60;;;6.90;;
13218;SDS011;6674;49.152;11.918;2022-07-23T03:01:04;7.80;;;7.10;;
13218;SDS011;6674;49.152;11.918;2022-07-23T03:03:31;6.90;;;6.30;;
13218;SDS011;6674;49.152;11.918;2022-07-23T03:05:59;6.87;;;6.37;;
13218;SDS011;6674;49.152;11.918;2022-07-23T03:08:26;7.90;;;7.23;;
13218;SDS011;6674;49.152;11.918;2022-07-23T03:10:52;7.23;;;6.63;;
13218;SDS011;6674;49.152;11.918;2022-07-23T03:13:19;7.20;;;6.50;;
13218;SDS011;6674;49.152;11.918;2022-07-23T03:15:46;7.47;;;6.77;;
13218;SDS011;6674;49.152;11.918;2022-07-23T03:18:12;7.73;;;6.90;;
13218;SDS011;6674;49.152;11.918;2022-07-23T03:20:39;7.03;;;6.37;;
13218;SDS011;6674;49.152;11.918;2022-07-23T03:23:07;7.57;;;6.60;;
13218;SDS011;6674;49.152;11.918;2022-07-23T03:25:33;6.23;;;5.83;;
13218;SDS011;6674;49.152;11.918;2022-07-23T03:28:00;6.40;;;5.90;;
13218;SDS011;6674;49.152;11.918;2022-07-23T03:30:27;6.23;;;5.70;;
13218;SDS011;6674;49.152;11.918;2022-07-23T03:32:53;5.77;;;5.27;;
13218;SDS011;6674;49.152;11.918;2022-07-23T03:35:20;6.23;;;5.73;;
13218;SDS011;6674;49.152;11.918;2022-07-23T03:37:46;6.40;;;5.90;;
13218;SDS011;6674;49.152;11.918;2022-07-23T03:40:14;6.70;;;6.10;;
13218;SDS011;6674;49.152;11.918;2022-07-23T03:42:41;6.57;;;6.07;;
13218;SDS011;6674;49.152;11.918;2022-07-23T03:45:08;5.80;;;5.30;;
13218;SDS011;6674;49.152;11.918;2022-07-23T03:47:36;5.83;;;5.43;;
13218;SDS011;6674;49.152;11.918;2022-07-23T03:50:04;6.50;;;6.00;;
13218;SDS011;6674;49.152;11.918;2022-07-23T03:52:32;6.00;;;5.60;;
13218;SDS011;6674;49.152;11.918;2022-07-23T03:54:58;7.33;;;6.67;;
13218;SDS011;6674;49.152;11.918;2022-07-23T03:57:26;7.73;;;7.03;;
13218;SDS011;6674;49.152;11.918;2022-07-23T03:59:53;7.87;;;7.13;;
13218;SDS011;6674;49.152;11.918;2022-07-23T04:02:20;8.20;;;7.23;;
13218;SDS011;6674;49.152;11.918;2022-07-23T04:04:46;8.00;;;7.30;;
13218;SDS011;6674;49.152;11.918;2022-07-23T04:07:13;7.47;;;6.87;;
13218;SDS011;6674;49.152;11.918;2022-07-23T04:09:40;8.33;;;7.63;;
13218;SDS011;6674;49.152;11.918;2022-07-23T04:12:07;8.10;;;7.50;;
13218;SDS011;6674;49.152;11.918;2022-07-23T04:14:35;7.70;;;7.10;;
13218;SDS011;6674;49.152;11.918;2022-07-23T04:17:02;8.57;;;7.77;;
13218;SDS011;6674;49.152;11.918;2022-07-23T04:19:29;7.50;;;6.90;;
13218;SDS011;6674;49.152;11.918;2022-07-23T04:21:56;7.00;;;6.50;;
13218;SDS011;6674;49.152;11.918;2022-07-23T04:24:23;7.43;;;6.80;;
13218;SDS011;6674;49.152;11.918;2022-07-23T04:26:49;7.27;;;6.63;;
13218;SDS011;6674;49.152;11.918;2022-07-23T04:29:16;7.27;;;6.60;;
13218;SDS011;6674;49.152;11.918;2022-07-23T04:31:44;7.50;;;6.87;;
13218;SDS011;6674;49.152;11.918;2022-07-23T04:34:10;7.30;;;6.60;;
13218;SDS011;6674;49.152;11.918;2022-07-23T04:36:37;6.70;;;6.13;;
13218;SDS011;6674;49.152;11.918;2022-07-23T04:39:04;6.40;;;5.90;;
13218;SDS011;6674;49.152;11.918;2022-07-23T04:41:30;5.60;;;5.20;;
13218;SDS011;6674;49.152;11.918;2022-07-23T04:43:57;5.40;;;4.90;;
13218;SDS011;6674;49.152;11.918;2022-07-23T04:46:23;5.03;;;4.60;;
13218;SDS011;6674;49.152;11.918;2022-07-23T04:48:51;4.53;;;4.13;;
13218;SDS011;6674;49.152;11.918;2022-07-23T04:51:18;7.23;;;5.00;;
13218;SDS011;6674;49.152;11.918;2022-07-23T04:53:44;5.00;;;4.60;;
13218;SDS011;6674;49.152;11.918;2022-07-23T04:56:11;4.47;;;4.07;;
13218;SDS011;6674;49.152;11.918;2022-07-23T04:58:38;4.83;;;4.43;;
13218;SDS011;6674;49.152;11.918;2022-07-23T05:01:04;4.40;;;4.00;;
13218;SDS011;6674;49.152;11.918;2022-07-23T05:03:31;7.10;;;4.23;;
13218;SDS011;6674;49.152;11.918;2022-07-23T05:05:59;4.27;;;3.87;;
13218;SDS011;6674;49.152;11.918;2022-07-23T05:08:28;4.57;;;4.17;;
13218;SDS011;6674;49.152;11.918;2022-07-23T05:10:54;4.53;;;4.10;;
13218;SDS011;6674;49.152;11.918;2022-07-23T05:13:21;4.97;;;4.50;;
13218;SDS011;6674;49.152;11.918;2022-07-23T05:15:47;4.50;;;3.97;;
13218;SDS011;6674;49.152;11.918;2022-07-23T05:18:14;4.30;;;4.00;;
13218;SDS011;6674;49.152;11.918;2022-07-23T05:20:41;4.00;;;3.70;;
13218;SDS011;6674;49.152;11.918;2022-07-23T05:23:09;4.13;;;3.67;;
13218;SDS011;6674;49.152;11.918;2022-07-23T05:25:35;4.53;;;4.13;;
13218;SDS011;6674;49.152;11.918;2022-07-23T05:28:02;4.10;;;3.70;;
13218;SDS011;6674;49.152;11.918;2022-07-23T05:30:29;4.67;;;4.17;;
13218;SDS011;6674;49.152;11.918;2022-07-23T05:32:55;4.70;;;4.00;;
13218;SDS011;6674;49.152;11.918;2022-07-23T05:35:22;3.93;;;3.63;;
13218;SDS011;6674;49.152;11.918;2022-07-23T05:37:49;3.60;;;3.30;;
13218;SDS011;6674;49.152;11.918;2022-07-23T05:40:19;4.00;;;3.60;;
13218;SDS011;6674;49.152;11.918;2022-07-23T05:42:45;3.77;;;3.47;;
13218;SDS011;6674;49.152;11.918;2022-07-23T05:45:12;3.57;;;3.20;;
13218;SDS011;6674;49.152;11.918;2022-07-23T05:47:39;2.97;;;2.77;;
13218;SDS011;6674;49.152;11.918;2022-07-23T05:50:07;2.93;;;2.70;;
13218;SDS011;6674;49.152;11.918;2022-07-23T05:52:33;4.37;;;3.30;;
13218;SDS011;6674;49.152;11.918;2022-07-23T05:55:00;3.83;;;3.43;;
13218;SDS011;6674;49.152;11.918;2022-07-23T05:57:28;4.10;;;3.40;;
13218;SDS011;6674;49.152;11.918;2022-07-23T05:59:54;4.13;;;3.43;;
13218;SDS011;6674;49.152;11.918;2022-07-23T06:02:21;3.50;;;3.30;;
13218;SDS011;6674;49.152;11.918;2022-07-23T06:04:48;3.40;;;3.10;;
13218;SDS011;6674;49.152;11.918;2022-07-23T06:07:14;3.40;;;3.10;;
13218;SDS011;6674;49.152;11.918;2022-07-23T06:09:41;3.37;;;3.07;;
13218;SDS011;6674;49.152;11.918;2022-07-23T06:12:07;3.20;;;3.00;;
13218;SDS011;6674;49.152;11.918;2022-07-23T06:14:36;3.27;;;3.07;;
13218;SDS011;6674;49.152;11.918;2022-07-23T06:17:02;3.20;;;3.00;;
13218;SDS011;6674;49.152;11.918;2022-07-23T06:19:29;3.63;;;3.30;;
13218;SDS011;6674;49.152;11.918;2022-07-23T06:21:55;3.63;;;3.10;;
13218;SDS011;6674;49.152;11.918;2022-07-23T06:24:22;3.10;;;2.90;;
13218;SDS011;6674;49.152;11.918;2022-07-23T06:26:49;2.93;;;2.73;;
13218;SDS011;6674;49.152;11.918;2022-07-23T06:29:15;2.90;;;2.67;;
13218;SDS011;6674;49.152;11.918;2022-07-23T06:31:43;3.20;;;3.00;;
13218;SDS011;6674;49.152;11.918;2022-07-23T06:34:10;3.20;;;2.90;;
13218;SDS011;6674;49.152;11.918;2022-07-23T06:36:36;3.10;;;2.90;;
13218;SDS011;6674;49.152;11.918;2022-07-23T06:39:03;3.90;;;3.40;;
13218;SDS011;6674;49.152;11.918;2022-07-23T06:41:29;4.00;;;3.20;;
13218;SDS011;6674;49.152;11.918;2022-07-23T06:43:56;3.70;;;3.00;;
13218;SDS011;6674;49.152;11.918;2022-07-23T06:46:23;3.30;;;3.00;;
13218;SDS011;6674;49.152;11.918;2022-07-23T06:48:51;3.37;;;3.10;;
13218;SDS011;6674;49.152;11.918;2022-07-23T06:51:18;3.57;;;3.27;;
13218;SDS011;6674;49.152;11.918;2022-07-23T06:53:45;3.30;;;3.00;;
13218;SDS011;6674;49.152;11.918;2022-07-23T06:56:11;3.37;;;3.13;;
13218;SDS011;6674;49.152;11.918;2022-07-23T06:58:38;3.10;;;2.90;;
13218;SDS011;6674;49.152;11.918;2022-07-23T07:01:04;3.80;;;3.50;;
13218;SDS011;6674;49.152;11.918;2022-07-23T07:03:31;3.30;;;3.00;;
13218;SDS011;6674;49.152;11.918;2022-07-23T07:05:59;3.40;;;3.10;;
13218;SDS011;6674;49.152;11.918;2022-07-23T07:08:25;3.40;;;3.20;;
13218;SDS011;6674;49.152;11.918;2022-07-23T07:10:52;3.60;;;3.30;;
13218;SDS011;6674;49.152;11.918;2022-07-23T07:13:19;3.70;;;3.40;;
13218;SDS011;6674;49.152;11.918;2022-07-23T07:15:45;4.00;;;3.70;;
13218;SDS011;6674;49.152;11.918;2022-07-23T07:18:12;4.10;;;3.50;;
13218;SDS011;6674;49.152;11.918;2022-07-23T07:20:38;4.07;;;3.70;;
13218;SDS011;6674;49.152;11.918;2022-07-23T07:23:06;4.10;;;3.70;;
13218;SDS011;6674;49.152;11.918;2022-07-23T07:25:33;4.50;;;3.90;;
13218;SDS011;6674;49.152;11.918;2022-07-23T07:28:00;4.23;;;3.60;;
13218;SDS011;6674;49.152;11.918;2022-07-23T07:30:26;4.03;;;3.63;;
13218;SDS011;6674;49.152;11.918;2022-07-23T07:32:53;4.40;;;3.80;;
13218;SDS011;6674;49.152;11.918;2022-07-23T07:35:20;4.23;;;3.93;;
13218;SDS011;6674;49.152;11.918;2022-07-23T07:37:46;4.23;;;3.93;;
13218;SDS011;6674;49.152;11.918;2022-07-23T07:40:14;4.47;;;3.97;;
13218;SDS011;6674;49.152;11.918;2022-07-23T07:42:44;4.10;;;3.80;;
13218;SDS011;6674;49.152;11.918;2022-07-23T07:45:11;4.40;;;4.00;;
13218;SDS011;6674;49.152;11.918;2022-07-23T07:47:38;4.30;;;4.00;;
13218;SDS011;6674;49.152;11.918;2022-07-23T07:50:05;4.37;;;4.07;;
13218;SDS011;6674;49.152;11.918;2022-07-23T07:52:33;4.33;;;4.03;;
13218;SDS011;6674;49.152;11.918;2022-07-23T07:55:01;4.20;;;3.80;;
13218;SDS011;6674;49.152;11.918;2022-07-23T07:57:29;4.10;;;3.80;;
13218;SDS011;6674;49.152;11.918;2022-07-23T07:59:56;4.00;;;3.70;;
13218;SDS011;6674;49.152;11.918;2022-07-23T08:02:22;4.00;;;3.70;;
13218;SDS011;6674;49.152;11.918;2022-07-23T08:04:49;4.50;;;4.10;;
13218;SDS011;6674;49.152;11.918;2022-07-23T08:07:15;3.83;;;3.60;;
13218;SDS011;6674;49.152;11.918;2022-07-23T08:09:42;4.10;;;3.80;;
13218;SDS011;6674;49.152;11.918;2022-07-23T08:12:08;4.10;;;3.80;;
13218;SDS011;6674;49.152;11.918;2022-07-23T08:14:36;3.50;;;3.30;;
13218;SDS011;6674;49.152;11.918;2022-07-23T08:17:03;4.27;;;3.97;;
13218;SDS011;6674;49.152;11.918;2022-07-23T08:19:30;4.20;;;3.90;;
13218;SDS011;6674;49.152;11.918;2022-07-23T08:21:57;4.13;;;3.83;;
13218;SDS011;6674;49.152;11.918;2022-07-23T08:24:24;4.00;;;3.70;;
13218;SDS011;6674;49.152;11.918;2022-07-23T08:26:51;4.30;;;3.90;;
13218;SDS011;6674;49.152;11.918;2022-07-23T08:29:17;4.70;;;4.30;;
13218;SDS011;6674;49.152;11.918;2022-07-23T08:31:45;4.53;;;4.13;;
13218;SDS011;6674;49.152;11.918;2022-07-23T08:34:12;4.32;;;3.92;;
13218;SDS011;6674;49.152;11.918;2022-07-23T08:36:38;3.80;;;3.60;;
13218;SDS011;6674;49.152;11.918;2022-07-23T08:39:05;4.67;;;4.27;;
13218;SDS011;6674;49.152;11.918;2022-07-23T08:41:32;4.50;;;4.10;;
13218;SDS011;6674;49.152;11.918;2022-07-23T08:44:00;4.47;;;4.07;;
13218;SDS011;6674;49.152;11.918;2022-07-23T08:46:26;4.63;;;4.22;;
13218;SDS011;6674;49.152;11.918;2022-07-23T08:48:55;4.85;;;4.45;;
13218;SDS011;6674;49.152;11.918;2022-07-23T08:51:24;4.60;;;4.30;;
13218;SDS011;6674;49.152;11.918;2022-07-23T08:53:52;4.80;;;4.32;;
13218;SDS011;6674;49.152;11.918;2022-07-23T08:56:21;4.78;;;4.43;;
13218;SDS011;6674;49.152;11.918;2022-07-23T08:58:48;4.45;;;4.15;;
13218;SDS011;6674;49.152;11.918;2022-07-23T09:01:14;4.25;;;3.95;;
13218;SDS011;6674;49.152;11.918;2022-07-23T09:03:41;4.30;;;4.00;;
13218;SDS011;6674;49.152;11.918;2022-07-23T09:06:11;4.32;;;4.00;;
13218;SDS011;6674;49.152;11.918;2022-07-23T09:08:38;4.13;;;3.83;;
13218;SDS011;6674;49.152;11.918;2022-07-23T09:11:07;4.22;;;3.90;;
13218;SDS011;6674;49.152;11.918;2022-07-23T09:13:35;4.85;;;4.45;;
13218;SDS011;6674;49.152;11.918;2022-07-23T09:16:05;4.25;;;3.92;;
13218;SDS011;6674;49.152;11.918;2022-07-23T09:18:34;4.35;;;3.97;;
13218;SDS011;6674;49.152;11.918;2022-07-23T09:21:08;4.40;;;4.10;;
13218;SDS011;6674;49.152;11.918;2022-07-23T09:23:38;4.13;;;3.83;;
13218;SDS011;6674;49.152;11.918;2022-07-23T09:26:16;4.50;;;4.10;;
13218;SDS011;6674;49.152;11.918;2022-07-23T09:28:50;4.35;;;4.00;;
13218;SDS011;6674;49.152;11.918;2022-07-23T09:31:19;4.85;;;4.50;;
13218;SDS011;6674;49.152;11.918;2022-07-23T09:33:46;4.53;;;4.22;;
13218;SDS011;6674;49.152;11.918;2022-07-23T09:36:12;4.20;;;3.90;;
13218;SDS011;6674;49.152;11.918;2022-07-23T09:38:49;4.68;;;4.32;;
13218;SDS011;6674;49.152;11.918;2022-07-23T09:41:17;4.75;;;4.43;;
13218;SDS011;6674;49.152;11.918;2022-07-23T09:43:43;4.10;;;3.80;;
13218;SDS011;6674;49.152;11.918;2022-07-23T09:46:16;4.57;;;4.28;;
13218;SDS011;6674;49.152;11.918;2022-07-23T09:48:44;4.68;;;4.38;;
13218;SDS011;6674;49.152;11.918;2022-07-23T09:51:11;4.50;;;4.20;;
13218;SDS011;6674;49.152;11.918;2022-07-23T09:53:37;4.75;;;4.45;;
13218;SDS011;6674;49.152;11.918;2022-07-23T09:56:06;4.70;;;4.40;;
13218;SDS011;6674;49.152;11.918;2022-07-23T09:58:34;4.95;;;4.50;;
13218;SDS011;6674;49.152;11.918;2022-07-23T10:01:10;5.07;;;4.72;;
13218;SDS011;6674;49.152;11.918;2022-07-23T10:03:41;5.30;;;4.90;;
13218;SDS011;6674;49.152;11.918;2022-07-23T10:06:08;5.32;;;4.93;;
13218;SDS011;6674;49.152;11.918;2022-07-23T10:08:36;5.22;;;4.82;;
13218;SDS011;6674;49.152;11.918;2022-07-23T10:11:08;5.50;;;4.80;;
13218;SDS011;6674;49.152;11.918;2022-07-23T10:13:37;5.72;;;5.20;;
13218;SDS011;6674;49.152;11.918;2022-07-23T10:16:20;4.75;;;4.45;;
13218;SDS011;6674;49.152;11.918;2022-07-23T10:18:47;4.85;;;4.45;;
13218;SDS011;6674;49.152;11.918;2022-07-23T10:21:16;5.00;;;4.60;;
13218;SDS011;6674;49.152;11.918;2022-07-23T10:24:01;5.85;;;5.32;;
13218;SDS011;6674;49.152;11.918;2022-07-23T10:26:38;6.20;;;5.50;;
13218;SDS011;6674;49.152;11.918;2022-07-23T10:29:13;5.47;;;5.07;;
13218;SDS011;6674;49.152;11.918;2022-07-23T10:31:50;5.53;;;5.03;;
13218;SDS011;6674;49.152;11.918;2022-07-23T10:34:25;6.18;;;5.57;;
13218;SDS011;6674;49.152;11.918;2022-07-23T10:37:03;5.65;;;5.20;;
13218;SDS011;6674;49.152;11.918;2022-07-23T10:39:39;6.07;;;5.57;;
13218;SDS011;6674;49.152;11.918;2022-07-23T10:42:11;5.88;;;5.40;;
13218;SDS011;6674;49.152;11.918;2022-07-23T10:44:39;6.03;;;5.53;;
13218;SDS011;6674;49.152;11.918;2022-07-23T10:47:08;6.20;;;5.70;;
13218;SDS011;6674;49.152;11.918;2022-07-23T10:49:52;5.70;;;5.30;;
13218;SDS011;6674;49.152;11.918;2022-07-23T10:52:22;4.90;;;4.60;;
13218;SDS011;6674;49.152;11.918;2022-07-23T10:54:51;5.47;;;5.00;;
13218;SDS011;6674;49.152;11.918;2022-07-23T10:57:23;5.03;;;4.63;;
13218;SDS011;6674;49.152;11.918;2022-07-23T11:02:38;4.85;;;4.55;;
13218;SDS011;6674;49.152;11.918;2022-07-23T11:05:07;5.18;;;4.78;;
13218;SDS011;6674;49.152;11.918;2022-07-23T11:07:36;5.15;;;4.75;;
13218;SDS011;6674;49.152;11.918;2022-07-23T11:10:03;4.88;;;4.57;;
13218;SDS011;6674;49.152;11.918;2022-07-23T11:12:35;4.82;;;4.53;;
13218;SDS011;6674;49.152;11.918;2022-07-23T11:15:04;4.70;;;4.40;;
13218;SDS011;6674;49.152;11.918;2022-07-23T11:17:33;4.88;;;4.57;;
13218;SDS011;6674;49.152;11.918;2022-07-23T11:20:17;4.85;;;4.55;;
13218;SDS011;6674;49.152;11.918;2022-07-23T11:22:47;4.40;;;4.10;;
13218;SDS011;6674;49.152;11.918;2022-07-23T11:25:31;4.88;;;4.47;;
13218;SDS011;6674;49.152;11.918;2022-07-23T11:28:17;5.03;;;4.57;;
13218;SDS011;6674;49.152;11.918;2022-07-23T11:30:46;4.28;;;3.88;;
13218;SDS011;6674;49.152;11.918;2022-07-23T11:33:17;3.97;;;3.67;;
13218;SDS011;6674;49.152;11.918;2022-07-23T11:35:46;4.03;;;3.70;;
13218;SDS011;6674;49.152;11.918;2022-07-23T11:38:15;4.32;;;4.03;;
13218;SDS011;6674;49.152;11.918;2022-07-23T11:40:43;3.80;;;3.60;;
13218;SDS011;6674;49.152;11.918;2022-07-23T11:43:13;4.45;;;4.15;;
13218;SDS011;6674;49.152;11.918;2022-07-23T11:45:44;4.13;;;3.83;;
13218;SDS011;6674;49.152;11.918;2022-07-23T11:48:17;4.22;;;3.90;;
13218;SDS011;6674;49.152;11.918;2022-07-23T11:50:46;4.10;;;3.80;;
13218;SDS011;6674;49.152;11.918;2022-07-23T11:53:21;4.38;;;4.07;;
13218;SDS011;6674;49.152;11.918;2022-07-23T11:55:49;4.20;;;3.90;;
13218;SDS011;6674;49.152;11.918;2022-07-23T11:58:16;3.67;;;3.47;;
13218;SDS011;6674;49.152;11.918;2022-07-23T12:00:44;4.20;;;3.90;;
13218;SDS011;6674;49.152;11.918;2022-07-23T12:03:11;4.30;;;4.00;;
13218;SDS011;6674;49.152;11.918;2022-07-23T12:05:37;4.15;;;3.85;;
13218;SDS011;6674;49.152;11.918;2022-07-23T12:08:05;4.10;;;3.83;;
13218;SDS011;6674;49.152;11.918;2022-07-23T12:10:33;4.50;;;4.20;;
13218;SDS011;6674;49.152;11.918;2022-07-23T12:13:02;4.00;;;3.80;;
13218;SDS011;6674;49.152;11.918;2022-07-23T12:15:32;4.03;;;3.72;;
13218;SDS011;6674;49.152;11.918;2022-07-23T12:18:04;4.20;;;3.90;;
13218;SDS011;6674;49.152;11.918;2022-07-23T12:20:33;3.90;;;3.60;;
13218;SDS011;6674;49.152;11.918;2022-07-23T12:23:04;4.00;;;3.80;;
13218;SDS011;6674;49.152;11.918;2022-07-23T12:25:32;3.95;;;3.65;;
13218;SDS011;6674;49.152;11.918;2022-07-23T12:28:02;4.10;;;3.80;;
13218;SDS011;6674;49.152;11.918;2022-07-23T12:30:31;3.85;;;3.55;;
13218;SDS011;6674;49.152;11.918;2022-07-23T12:32:59;3.88;;;3.58;;
13218;SDS011;6674;49.152;11.918;2022-07-23T12:35:32;3.50;;;3.25;;
13218;SDS011;6674;49.152;11.918;2022-07-23T12:38:00;3.55;;;3.35;;
13218;SDS011;6674;49.152;11.918;2022-07-23T12:40:30;3.30;;;3.10;;
13218;SDS011;6674;49.152;11.918;2022-07-23T12:42:58;3.85;;;3.63;;
13218;SDS011;6674;49.152;11.918;2022-07-23T12:45:28;3.78;;;3.47;;
13218;SDS011;6674;49.152;11.918;2022-07-23T12:48:08;3.53;;;3.30;;
13218;SDS011;6674;49.152;11.918;2022-07-23T12:50:48;4.22;;;3.92;;
13218;SDS011;6674;49.152;11.918;2022-07-23T12:53:17;3.97;;;3.75;;
13218;SDS011;6674;49.152;11.918;2022-07-23T12:55:45;3.42;;;3.22;;
13218;SDS011;6674;49.152;11.918;2022-07-23T12:58:14;3.65;;;3.40;;
13218;SDS011;6674;49.152;11.918;2022-07-23T13:00:59;3.92;;;3.70;;
13218;SDS011;6674;49.152;11.918;2022-07-23T13:03:29;3.75;;;3.45;;
13218;SDS011;6674;49.152;11.918;2022-07-23T13:06:00;4.00;;;3.75;;
13218;SDS011;6674;49.152;11.918;2022-07-23T13:08:28;3.80;;;3.47;;
13218;SDS011;6674;49.152;11.918;2022-07-23T13:10:57;4.35;;;4.05;;
13218;SDS011;6674;49.152;11.918;2022-07-23T13:13:24;5.03;;;4.70;;
13218;SDS011;6674;49.152;11.918;2022-07-23T13:15:52;4.43;;;4.13;;
13218;SDS011;6674;49.152;11.918;2022-07-23T13:18:19;3.95;;;3.65;;
13218;SDS011;6674;49.152;11.918;2022-07-23T13:20:47;4.30;;;4.00;;
13218;SDS011;6674;49.152;11.918;2022-07-23T13:23:16;4.50;;;4.20;;
13218;SDS011;6674;49.152;11.918;2022-07-23T13:25:43;4.72;;;4.38;;
13218;SDS011;6674;49.152;11.918;2022-07-23T13:28:10;4.82;;;4.32;;
13218;SDS011;6674;49.152;11.918;2022-07-23T13:30:37;4.75;;;4.30;;
13218;SDS011;6674;49.152;11.918;2022-07-23T13:33:04;4.72;;;4.32;;
13218;SDS011;6674;49.152;11.918;2022-07-23T13:35:31;5.00;;;4.70;;
13218;SDS011;6674;49.152;11.918;2022-07-23T13:37:58;4.45;;;4.05;;
13218;SDS011;6674;49.152;11.918;2022-07-23T13:40:26;4.82;;;4.40;;
13218;SDS011;6674;49.152;11.918;2022-07-23T13:42:52;3.95;;;3.70;;
13218;SDS011;6674;49.152;11.918;2022-07-23T13:45:19;4.63;;;4.22;;
13218;SDS011;6674;49.152;11.918;2022-07-23T13:47:46;4.60;;;4.30;;
13218;SDS011;6674;49.152;11.918;2022-07-23T13:50:13;4.53;;;4.22;;
13218;SDS011;6674;49.152;11.918;2022-07-23T13:52:41;4.32;;;4.03;;
13218;SDS011;6674;49.152;11.918;2022-07-23T13:55:08;4.32;;;4.03;;
13218;SDS011;6674;49.152;11.918;2022-07-23T13:57:36;4.00;;;3.70;;
13218;SDS011;6674;49.152;11.918;2022-07-23T14:00:03;4.07;;;3.78;;
13218;SDS011;6674;49.152;11.918;2022-07-23T14:02:32;4.05;;;3.75;;
13218;SDS011;6674;49.152;11.918;2022-07-23T14:04:59;4.50;;;4.20;;
13218;SDS011;6674;49.152;11.918;2022-07-23T14:07:25;4.53;;;4.13;;
13218;SDS011;6674;49.152;11.918;2022-07-23T14:09:52;4.53;;;4.13;;
13218;SDS011;6674;49.152;11.918;2022-07-23T14:12:18;4.43;;;4.03;;
13218;SDS011;6674;49.152;11.918;2022-07-23T14:14:46;4.10;;;3.80;;
13218;SDS011;6674;49.152;11.918;2022-07-23T14:17:13;4.63;;;4.22;;
13218;SDS011;6674;49.152;11.918;2022-07-23T14:19:40;3.83;;;3.60;;
13218;SDS011;6674;49.152;11.918;2022-07-23T14:22:06;4.13;;;3.83;;
13218;SDS011;6674;49.152;11.918;2022-07-23T14:24:33;4.03;;;3.67;;
13218;SDS011;6674;49.152;11.918;2022-07-23T14:27:00;4.78;;;4.43;;
13218;SDS011;6674;49.152;11.918;2022-07-23T14:29:27;4.38;;;4.07;;
13218;SDS011;6674;49.152;11.918;2022-07-23T14:31:56;4.30;;;4.00;;
13218;SDS011;6674;49.152;11.918;2022-07-23T14:34:23;4.40;;;4.10;;
13218;SDS011;6674;49.152;11.918;2022-07-23T14:36:50;4.03;;;3.83;;
13218;SDS011;6674;49.152;11.918;2022-07-23T14:39:16;3.80;;;3.60;;
13218;SDS011;6674;49.152;11.918;2022-07-23T14:41:43;4.30;;;4.00;;
13218;SDS011;6674;49.152;11.918;2022-07-23T14:44:10;4.30;;;4.00;;
13218;SDS011;6674;49.152;11.918;2022-07-23T14:46:37;4.38;;;4.07;;
13218;SDS011;6674;49.152;11.918;2022-07-23T14:49:05;4.05;;;3.75;;
13218;SDS011;6674;49.152;11.918;2022-07-23T14:51:32;4.22;;;3.85;;
13218;SDS011;6674;49.152;11.918;2022-07-23T14:53:58;4.03;;;3.83;;
13218;SDS011;6674;49.152;11.918;2022-07-23T14:56:25;14.32;;;5.50;;